sensor_id;sensor_type;location;lat;lon;timestamp;temperature;humidity
58153;DHT22;43967;51.634;5.566;2023-06-22T00:02:53;26.30;55.60
58153;DHT22;43967;51.634;5.566;2023-06-22T00:08:15;26.30;55.60
58153;DHT22;43967;51.634;5.566;2023-06-22T00:13:37;26.30;55.60
58153;DHT22;43967;51.634;5.566;2023-06-22T00:18:59;26.40;55.60
58153;DHT22;43967;51.634;5.566;2023-06-22T00:24:20;26.40;55.70
58153;DHT22;43967;51.634;5.566;2023-06-22T00:29:45;26.30;55.60
58153;DHT22;43967;51.634;5.566;2023-06-22T00:35:07;26.30;55.60
58153;DHT22;43967;51.634;5.566;2023-06-22T00:40:32;26.30;55.60
58153;DHT22;43967;51.634;5.566;2023-06-22T00:45:55;26.30;55.70
58153;DHT22;43967;51.634;5.566;2023-06-22T00:51:16;26.30;55.70
58153;DHT22;43967;51.634;5.566;2023-06-22T00:56:38;26.30;55.70
58153;DHT22;43967;51.634;5.566;2023-06-22T01:02:00;26.30;55.70
58153;DHT22;43967;51.634;5.566;2023-06-22T01:12:52;26.30;55.80
58153;DHT22;43967;51.634;5.566;2023-06-22T01:18:15;26.30;55.80
58153;DHT22;43967;51.634;5.566;2023-06-22T01:29:18;26.20;55.80
58153;DHT22;43967;51.634;5.566;2023-06-22T01:34:40;26.20;55.80
58153;DHT22;43967;51.634;5.566;2023-06-22T01:40:02;26.20;55.80
58153;DHT22;43967;51.634;5.566;2023-06-22T01:45:25;26.20;55.80
58153;DHT22;43967;51.634;5.566;2023-06-22T01:50:47;26.20;55.80
58153;DHT22;43967;51.634;5.566;2023-06-22T01:56:09;26.20;55.90
58153;DHT22;43967;51.634;5.566;2023-06-22T02:01:53;26.20;55.90
58153;DHT22;43967;51.634;5.566;2023-06-22T02:07:17;26.20;55.90
58153;DHT22;43967;51.634;5.566;2023-06-22T02:12:42;26.20;55.90
58153;DHT22;43967;51.634;5.566;2023-06-22T02:18:04;26.20;56.00
58153;DHT22;43967;51.634;5.566;2023-06-22T02:23:25;26.20;56.00
58153;DHT22;43967;51.634;5.566;2023-06-22T02:28:46;26.20;56.00
58153;DHT22;43967;51.634;5.566;2023-06-22T02:34:08;26.20;56.10
58153;DHT22;43967;51.634;5.566;2023-06-22T02:39:29;26.20;56.10
58153;DHT22;43967;51.634;5.566;2023-06-22T02:44:50;26.20;56.10
58153;DHT22;43967;51.634;5.566;2023-06-22T02:50:12;26.10;56.00
58153;DHT22;43967;51.634;5.566;2023-06-22T02:55:33;26.10;56.00
58153;DHT22;43967;51.634;5.566;2023-06-22T03:00:54;26.10;56.00
58153;DHT22;43967;51.634;5.566;2023-06-22T03:06:16;26.10;56.00
58153;DHT22;43967;51.634;5.566;2023-06-22T03:11:37;26.10;56.10
58153;DHT22;43967;51.634;5.566;2023-06-22T03:16:58;26.10;56.10
58153;DHT22;43967;51.634;5.566;2023-06-22T03:22:20;26.10;56.10
58153;DHT22;43967;51.634;5.566;2023-06-22T03:27:42;26.10;56.10
58153;DHT22;43967;51.634;5.566;2023-06-22T03:33:03;26.10;56.10
58153;DHT22;43967;51.634;5.566;2023-06-22T03:38:24;26.10;56.10
58153;DHT22;43967;51.634;5.566;2023-06-22T03:43:46;26.00;56.10
58153;DHT22;43967;51.634;5.566;2023-06-22T03:49:07;26.00;56.10
58153;DHT22;43967;51.634;5.566;2023-06-22T03:54:29;26.00;56.10
58153;DHT22;43967;51.634;5.566;2023-06-22T03:59:50;26.10;56.90
58153;DHT22;43967;51.634;5.566;2023-06-22T04:05:12;26.00;56.10
58153;DHT22;43967;51.634;5.566;2023-06-22T04:10:33;26.00;56.10
58153;DHT22;43967;51.634;5.566;2023-06-22T04:15:55;26.00;56.20
58153;DHT22;43967;51.634;5.566;2023-06-22T04:21:16;26.00;56.20
58153;DHT22;43967;51.634;5.566;2023-06-22T04:26:37;26.00;56.20
58153;DHT22;43967;51.634;5.566;2023-06-22T04:31:59;26.00;56.20
58153;DHT22;43967;51.634;5.566;2023-06-22T04:37:20;26.00;56.20
58153;DHT22;43967;51.634;5.566;2023-06-22T04:42:41;26.00;56.20
58153;DHT22;43967;51.634;5.566;2023-06-22T04:48:03;26.00;56.20
58153;DHT22;43967;51.634;5.566;2023-06-22T04:53:24;26.00;56.30
58153;DHT22;43967;51.634;5.566;2023-06-22T04:58:46;26.00;56.20
58153;DHT22;43967;51.634;5.566;2023-06-22T05:04:07;26.00;56.20
58153;DHT22;43967;51.634;5.566;2023-06-22T05:09:29;26.00;56.20
58153;DHT22;43967;51.634;5.566;2023-06-22T05:14:51;26.00;56.20
58153;DHT22;43967;51.634;5.566;2023-06-22T05:20:12;26.00;56.20
58153;DHT22;43967;51.634;5.566;2023-06-22T05:25:34;26.00;56.30
58153;DHT22;43967;51.634;5.566;2023-06-22T05:30:55;26.00;56.40
58153;DHT22;43967;51.634;5.566;2023-06-22T05:36:16;26.00;56.50
58153;DHT22;43967;51.634;5.566;2023-06-22T05:41:38;26.00;56.70
58153;DHT22;43967;51.634;5.566;2023-06-22T05:46:59;25.70;58.70
58153;DHT22;43967;51.634;5.566;2023-06-22T05:52:20;25.50;59.70
58153;DHT22;43967;51.634;5.566;2023-06-22T05:57:42;25.40;60.40
58153;DHT22;43967;51.634;5.566;2023-06-22T06:03:03;25.30;60.90
58153;DHT22;43967;51.634;5.566;2023-06-22T06:08:25;25.20;61.20
58153;DHT22;43967;51.634;5.566;2023-06-22T06:13:46;25.10;61.50
58153;DHT22;43967;51.634;5.566;2023-06-22T06:19:07;25.10;61.80
58153;DHT22;43967;51.634;5.566;2023-06-22T06:24:29;25.10;62.50
58153;DHT22;43967;51.634;5.566;2023-06-22T06:29:50;25.10;62.50
58153;DHT22;43967;51.634;5.566;2023-06-22T06:35:13;25.20;62.60
58153;DHT22;43967;51.634;5.566;2023-06-22T06:40:35;25.20;63.10
58153;DHT22;43967;51.634;5.566;2023-06-22T06:45:56;25.20;63.70
58153;DHT22;43967;51.634;5.566;2023-06-22T06:51:17;25.20;63.00
58153;DHT22;43967;51.634;5.566;2023-06-22T06:56:38;25.30;63.20
58153;DHT22;43967;51.634;5.566;2023-06-22T07:02:00;25.30;63.40
58153;DHT22;43967;51.634;5.566;2023-06-22T07:07:21;25.30;63.70
58153;DHT22;43967;51.634;5.566;2023-06-22T07:12:43;25.30;64.00
58153;DHT22;43967;51.634;5.566;2023-06-22T07:18:04;25.20;63.30
58153;DHT22;43967;51.634;5.566;2023-06-22T07:23:25;25.30;63.00
58153;DHT22;43967;51.634;5.566;2023-06-22T07:28:46;25.30;63.50
58153;DHT22;43967;51.634;5.566;2023-06-22T07:34:08;25.30;62.80
58153;DHT22;43967;51.634;5.566;2023-06-22T07:39:29;25.30;63.60
58153;DHT22;43967;51.634;5.566;2023-06-22T07:44:50;25.30;61.80
58153;DHT22;43967;51.634;5.566;2023-06-22T07:50:11;25.20;62.20
58153;DHT22;43967;51.634;5.566;2023-06-22T07:55:33;25.30;62.20
58153;DHT22;43967;51.634;5.566;2023-06-22T08:00:54;25.30;63.00
58153;DHT22;43967;51.634;5.566;2023-06-22T08:06:15;25.40;62.20
58153;DHT22;43967;51.634;5.566;2023-06-22T08:11:37;25.40;62.60
58153;DHT22;43967;51.634;5.566;2023-06-22T08:16:58;25.40;62.40
58153;DHT22;43967;51.634;5.566;2023-06-22T08:22:19;25.50;62.40
58153;DHT22;43967;51.634;5.566;2023-06-22T08:27:43;25.50;62.30
58153;DHT22;43967;51.634;5.566;2023-06-22T08:33:05;25.50;61.60
58153;DHT22;43967;51.634;5.566;2023-06-22T08:38:26;25.60;62.30
58153;DHT22;43967;51.634;5.566;2023-06-22T08:43:48;25.50;61.60
58153;DHT22;43967;51.634;5.566;2023-06-22T08:49:09;25.60;61.50
58153;DHT22;43967;51.634;5.566;2023-06-22T08:54:30;25.60;61.20
58153;DHT22;43967;51.634;5.566;2023-06-22T08:59:51;25.60;60.80
58153;DHT22;43967;51.634;5.566;2023-06-22T09:05:13;25.60;60.20
58153;DHT22;43967;51.634;5.566;2023-06-22T09:10:34;25.60;60.00
58153;DHT22;43967;51.634;5.566;2023-06-22T09:15:56;25.60;60.00
58153;DHT22;43967;51.634;5.566;2023-06-22T09:21:17;25.60;59.90
58153;DHT22;43967;51.634;5.566;2023-06-22T09:26:38;25.60;59.90
58153;DHT22;43967;51.634;5.566;2023-06-22T09:32:00;25.50;59.60
58153;DHT22;43967;51.634;5.566;2023-06-22T09:37:21;25.60;59.70
58153;DHT22;43967;51.634;5.566;2023-06-22T09:42:42;25.50;59.50
58153;DHT22;43967;51.634;5.566;2023-06-22T09:48:04;25.50;59.70
58153;DHT22;43967;51.634;5.566;2023-06-22T09:53:25;25.60;60.00
58153;DHT22;43967;51.634;5.566;2023-06-22T09:58:47;25.50;60.00
58153;DHT22;43967;51.634;5.566;2023-06-22T10:04:08;25.60;60.20
58153;DHT22;43967;51.634;5.566;2023-06-22T10:09:29;25.50;60.50
58153;DHT22;43967;51.634;5.566;2023-06-22T10:14:52;25.60;60.60
58153;DHT22;43967;51.634;5.566;2023-06-22T10:20:13;25.60;60.60
58153;DHT22;43967;51.634;5.566;2023-06-22T10:25:35;25.60;60.90
58153;DHT22;43967;51.634;5.566;2023-06-22T10:30:56;25.60;61.10
58153;DHT22;43967;51.634;5.566;2023-06-22T10:36:17;25.60;61.20
58153;DHT22;43967;51.634;5.566;2023-06-22T10:41:39;25.60;61.10
58153;DHT22;43967;51.634;5.566;2023-06-22T10:47:00;25.60;61.30
58153;DHT22;43967;51.634;5.566;2023-06-22T10:52:21;25.60;61.20
58153;DHT22;43967;51.634;5.566;2023-06-22T10:57:42;25.60;61.20
58153;DHT22;43967;51.634;5.566;2023-06-22T11:03:04;25.60;61.20
58153;DHT22;43967;51.634;5.566;2023-06-22T11:08:25;25.60;61.50
58153;DHT22;43967;51.634;5.566;2023-06-22T11:13:46;25.60;62.50
58153;DHT22;43967;51.634;5.566;2023-06-22T11:19:08;25.60;63.60
58153;DHT22;43967;51.634;5.566;2023-06-22T11:24:29;25.60;64.70
58153;DHT22;43967;51.634;5.566;2023-06-22T11:29:50;25.60;65.70
58153;DHT22;43967;51.634;5.566;2023-06-22T11:35:12;25.60;66.70
58153;DHT22;43967;51.634;5.566;2023-06-22T11:40:33;25.60;67.20
58153;DHT22;43967;51.634;5.566;2023-06-22T11:45:54;25.60;67.50
58153;DHT22;43967;51.634;5.566;2023-06-22T11:51:16;25.60;68.70
58153;DHT22;43967;51.634;5.566;2023-06-22T11:56:37;25.50;70.00
58153;DHT22;43967;51.634;5.566;2023-06-22T12:01:59;25.50;68.50
58153;DHT22;43967;51.634;5.566;2023-06-22T12:07:20;25.40;68.00
58153;DHT22;43967;51.634;5.566;2023-06-22T12:12:41;25.40;67.90
58153;DHT22;43967;51.634;5.566;2023-06-22T12:18:03;25.20;69.10
58153;DHT22;43967;51.634;5.566;2023-06-22T12:23:24;25.10;69.30
58153;DHT22;43967;51.634;5.566;2023-06-22T12:28:46;25.10;69.30
58153;DHT22;43967;51.634;5.566;2023-06-22T12:34:08;25.10;69.10
58153;DHT22;43967;51.634;5.566;2023-06-22T12:39:29;25.10;69.10
58153;DHT22;43967;51.634;5.566;2023-06-22T12:44:50;25.10;69.20
58153;DHT22;43967;51.634;5.566;2023-06-22T12:50:12;25.10;70.00
58153;DHT22;43967;51.634;5.566;2023-06-22T12:55:33;25.10;69.50
58153;DHT22;43967;51.634;5.566;2023-06-22T13:00:54;25.00;69.50
58153;DHT22;43967;51.634;5.566;2023-06-22T13:06:16;24.90;69.30
58153;DHT22;43967;51.634;5.566;2023-06-22T13:11:37;24.90;69.10
58153;DHT22;43967;51.634;5.566;2023-06-22T13:16:58;24.90;68.80
58153;DHT22;43967;51.634;5.566;2023-06-22T13:22:32;24.90;68.90
58153;DHT22;43967;51.634;5.566;2023-06-22T13:27:53;24.90;69.20
58153;DHT22;43967;51.634;5.566;2023-06-22T13:33:15;24.80;69.20
58153;DHT22;43967;51.634;5.566;2023-06-22T13:38:36;24.90;69.30
58153;DHT22;43967;51.634;5.566;2023-06-22T13:43:58;24.80;69.30
58153;DHT22;43967;51.634;5.566;2023-06-22T13:49:19;24.80;69.40
58153;DHT22;43967;51.634;5.566;2023-06-22T13:54:40;24.70;69.40
58153;DHT22;43967;51.634;5.566;2023-06-22T14:00:03;24.70;69.60
58153;DHT22;43967;51.634;5.566;2023-06-22T14:05:27;24.60;69.70
58153;DHT22;43967;51.634;5.566;2023-06-22T14:10:49;24.70;70.00
58153;DHT22;43967;51.634;5.566;2023-06-22T14:16:10;24.60;70.00
58153;DHT22;43967;51.634;5.566;2023-06-22T14:21:31;24.60;69.80
58153;DHT22;43967;51.634;5.566;2023-06-22T14:26:54;24.60;69.90
58153;DHT22;43967;51.634;5.566;2023-06-22T14:32:15;24.60;70.40
58153;DHT22;43967;51.634;5.566;2023-06-22T14:37:36;24.50;70.80
58153;DHT22;43967;51.634;5.566;2023-06-22T14:42:58;24.50;71.20
58153;DHT22;43967;51.634;5.566;2023-06-22T14:48:19;24.50;71.50
58153;DHT22;43967;51.634;5.566;2023-06-22T14:53:41;24.50;71.90
58153;DHT22;43967;51.634;5.566;2023-06-22T14:59:03;24.50;72.30
58153;DHT22;43967;51.634;5.566;2023-06-22T15:04:24;24.50;72.40
58153;DHT22;43967;51.634;5.566;2023-06-22T15:09:46;24.40;72.50
58153;DHT22;43967;51.634;5.566;2023-06-22T15:15:07;24.40;72.80
58153;DHT22;43967;51.634;5.566;2023-06-22T15:20:29;24.40;72.70
58153;DHT22;43967;51.634;5.566;2023-06-22T15:25:50;24.30;73.00
58153;DHT22;43967;51.634;5.566;2023-06-22T15:31:11;24.30;73.30
58153;DHT22;43967;51.634;5.566;2023-06-22T15:36:34;24.20;73.70
58153;DHT22;43967;51.634;5.566;2023-06-22T15:41:55;24.20;73.40
58153;DHT22;43967;51.634;5.566;2023-06-22T15:47:16;24.20;73.40
58153;DHT22;43967;51.634;5.566;2023-06-22T15:52:42;24.20;73.60
58153;DHT22;43967;51.634;5.566;2023-06-22T15:58:03;24.10;73.40
58153;DHT22;43967;51.634;5.566;2023-06-22T16:03:25;24.20;73.30
58153;DHT22;43967;51.634;5.566;2023-06-22T16:08:46;24.20;73.40
58153;DHT22;43967;51.634;5.566;2023-06-22T16:14:07;24.10;73.50
58153;DHT22;43967;51.634;5.566;2023-06-22T16:19:28;24.10;74.20
58153;DHT22;43967;51.634;5.566;2023-06-22T16:24:51;24.10;73.50
58153;DHT22;43967;51.634;5.566;2023-06-22T16:30:12;24.10;73.60
58153;DHT22;43967;51.634;5.566;2023-06-22T16:35:33;24.10;73.60
58153;DHT22;43967;51.634;5.566;2023-06-22T16:40:55;24.10;73.60
58153;DHT22;43967;51.634;5.566;2023-06-22T16:46:16;24.10;73.50
58153;DHT22;43967;51.634;5.566;2023-06-22T16:51:37;24.10;73.40
58153;DHT22;43967;51.634;5.566;2023-06-22T16:57:00;24.00;73.80
58153;DHT22;43967;51.634;5.566;2023-06-22T17:02:23;24.10;73.80
58153;DHT22;43967;51.634;5.566;2023-06-22T17:07:51;24.10;73.80
58153;DHT22;43967;51.634;5.566;2023-06-22T17:13:13;24.00;74.00
58153;DHT22;43967;51.634;5.566;2023-06-22T17:18:35;24.00;74.70
58153;DHT22;43967;51.634;5.566;2023-06-22T17:23:57;24.00;74.90
58153;DHT22;43967;51.634;5.566;2023-06-22T17:29:18;24.00;75.30
58153;DHT22;43967;51.634;5.566;2023-06-22T17:34:39;24.00;76.20
58153;DHT22;43967;51.634;5.566;2023-06-22T17:40:01;24.00;76.50
58153;DHT22;43967;51.634;5.566;2023-06-22T17:45:23;24.00;76.60
58153;DHT22;43967;51.634;5.566;2023-06-22T17:50:44;24.00;76.30
58153;DHT22;43967;51.634;5.566;2023-06-22T17:56:05;23.90;76.70
58153;DHT22;43967;51.634;5.566;2023-06-22T18:01:35;23.90;75.90
58153;DHT22;43967;51.634;5.566;2023-06-22T18:06:56;23.90;75.60
58153;DHT22;43967;51.634;5.566;2023-06-22T18:12:18;23.90;75.40
58153;DHT22;43967;51.634;5.566;2023-06-22T18:17:41;23.80;75.20
58153;DHT22;43967;51.634;5.566;2023-06-22T18:23:03;23.80;75.40
58153;DHT22;43967;51.634;5.566;2023-06-22T18:28:24;23.80;75.50
58153;DHT22;43967;51.634;5.566;2023-06-22T18:33:50;23.70;75.20
58153;DHT22;43967;51.634;5.566;2023-06-22T18:39:12;23.70;75.30
58153;DHT22;43967;51.634;5.566;2023-06-22T18:44:34;23.70;75.00
58153;DHT22;43967;51.634;5.566;2023-06-22T18:50:07;23.70;74.70
58153;DHT22;43967;51.634;5.566;2023-06-22T18:55:31;23.80;74.40
58153;DHT22;43967;51.634;5.566;2023-06-22T19:01:18;23.80;73.90
58153;DHT22;43967;51.634;5.566;2023-06-22T19:12:18;23.70;73.90
58153;DHT22;43967;51.634;5.566;2023-06-22T19:17:42;23.70;74.10
58153;DHT22;43967;51.634;5.566;2023-06-22T19:23:04;23.50;74.90
58153;DHT22;43967;51.634;5.566;2023-06-22T19:28:26;23.40;75.20
58153;DHT22;43967;51.634;5.566;2023-06-22T19:33:53;23.40;75.20
58153;DHT22;43967;51.634;5.566;2023-06-22T19:39:14;23.40;75.50
58153;DHT22;43967;51.634;5.566;2023-06-22T19:44:35;23.30;75.80
58153;DHT22;43967;51.634;5.566;2023-06-22T19:50:00;23.30;76.10
58153;DHT22;43967;51.634;5.566;2023-06-22T19:55:22;23.30;76.30
58153;DHT22;43967;51.634;5.566;2023-06-22T20:00:44;23.20;76.40
58153;DHT22;43967;51.634;5.566;2023-06-22T20:06:13;23.20;77.20
58153;DHT22;43967;51.634;5.566;2023-06-22T20:11:35;23.20;77.00
58153;DHT22;43967;51.634;5.566;2023-06-22T20:16:56;23.20;77.30
58153;DHT22;43967;51.634;5.566;2023-06-22T20:22:17;23.20;77.10
58153;DHT22;43967;51.634;5.566;2023-06-22T20:27:42;23.30;77.00
58153;DHT22;43967;51.634;5.566;2023-06-22T20:33:03;23.50;75.60
58153;DHT22;43967;51.634;5.566;2023-06-22T20:38:26;23.60;74.50
58153;DHT22;43967;51.634;5.566;2023-06-22T20:43:52;23.70;73.80
58153;DHT22;43967;51.634;5.566;2023-06-22T20:49:14;23.80;73.10
58153;DHT22;43967;51.634;5.566;2023-06-22T20:54:35;23.80;72.60
58153;DHT22;43967;51.634;5.566;2023-06-22T20:59:56;23.90;72.20
58153;DHT22;43967;51.634;5.566;2023-06-22T21:05:18;23.90;71.90
58153;DHT22;43967;51.634;5.566;2023-06-22T21:10:40;23.90;71.90
58153;DHT22;43967;51.634;5.566;2023-06-22T21:16:01;23.90;72.00
58153;DHT22;43967;51.634;5.566;2023-06-22T21:21:22;24.00;71.90
58153;DHT22;43967;51.634;5.566;2023-06-22T21:26:44;24.00;71.50
58153;DHT22;43967;51.634;5.566;2023-06-22T21:32:05;24.10;71.30
58153;DHT22;43967;51.634;5.566;2023-06-22T21:37:27;24.10;71.10
58153;DHT22;43967;51.634;5.566;2023-06-22T21:42:49;24.10;70.80
58153;DHT22;43967;51.634;5.566;2023-06-22T21:48:10;24.20;70.60
58153;DHT22;43967;51.634;5.566;2023-06-22T21:53:31;24.20;70.40
58153;DHT22;43967;51.634;5.566;2023-06-22T21:58:52;24.20;70.10
58153;DHT22;43967;51.634;5.566;2023-06-22T22:04:14;24.20;69.90
58153;DHT22;43967;51.634;5.566;2023-06-22T22:09:35;24.20;69.70
58153;DHT22;43967;51.634;5.566;2023-06-22T22:14:56;24.20;69.50
58153;DHT22;43967;51.634;5.566;2023-06-22T22:20:18;24.20;69.30
58153;DHT22;43967;51.634;5.566;2023-06-22T22:25:39;24.30;69.20
58153;DHT22;43967;51.634;5.566;2023-06-22T22:31:01;24.30;69.10
58153;DHT22;43967;51.634;5.566;2023-06-22T22:36:22;24.30;68.90
58153;DHT22;43967;51.634;5.566;2023-06-22T22:41:43;24.30;68.70
58153;DHT22;43967;51.634;5.566;2023-06-22T22:47:04;24.20;68.50
58153;DHT22;43967;51.634;5.566;2023-06-22T22:52:28;24.30;68.40
58153;DHT22;43967;51.634;5.566;2023-06-22T22:57:50;24.30;68.40
58153;DHT22;43967;51.634;5.566;2023-06-22T23:03:11;24.30;68.20
58153;DHT22;43967;51.634;5.566;2023-06-22T23:08:32;24.30;68.00
58153;DHT22;43967;51.634;5.566;2023-06-22T23:13:55;24.30;67.90
58153;DHT22;43967;51.634;5.566;2023-06-22T23:19:16;24.30;67.70
58153;DHT22;43967;51.634;5.566;2023-06-22T23:24:37;24.30;67.70
58153;DHT22;43967;51.634;5.566;2023-06-22T23:29:59;24.30;67.50
58153;DHT22;43967;51.634;5.566;2023-06-22T23:35:20;24.30;67.20
58153;DHT22;43967;51.634;5.566;2023-06-22T23:40:41;24.30;67.20
58153;DHT22;43967;51.634;5.566;2023-06-22T23:46:03;24.30;67.20
58153;DHT22;43967;51.634;5.566;2023-06-22T23:51:24;24.20;67.00
58153;DHT22;43967;51.634;5.566;2023-06-22T23:56:45;24.30;66.90
